Time;durP1;ratioP1;P1;durP2;ratioP2;P2;SDS_P1;SDS_P2;PMS_P1;PMS_P2;Temp;Humidity;BMP_temperature;BMP_pressure;BME280_temperature;BME280_humidity;BME280_pressure;Samples;Min_cycle;Max_cycle;Signal;HPM_P1;HPM_P2
2021/12/20 00:02:20;;;;;;;;;21.33;19.00;;;;;;;;5099019;27;45627;-86
2021/12/20 00:04:49;;;;;;;;;27.00;24.00;;;;;;;;5098760;27;45493;-86
2021/12/20 00:07:14;;;;;;;;;19.50;18.50;;;;;;;;5098475;27;45335;-86
2021/12/20 00:09:39;;;;;;;;;24.00;23.00;;;;;;;;5098649;27;47371;-86
2021/12/20 00:12:05;;;;;;;;;29.33;25.00;;;;;;;;5117336;27;45410;-87
2021/12/20 00:14:30;;;;;;;;;23.75;22.75;;;;;;;;5117261;27;45781;-86
2021/12/20 00:16:55;;;;;;;;;22.33;22.33;;;;;;;;5117522;27;45388;-86
2021/12/20 00:19:20;;;;;;;;;21.67;20.00;;;;;;;;5116637;27;47523;-85
2021/12/20 00:21:45;;;;;;;;;21.00;19.33;;;;;;;;5098661;27;45385;-86
2021/12/20 00:24:11;;;;;;;;;25.00;23.00;;;;;;;;5098188;27;45250;-86
2021/12/20 00:26:36;;;;;;;;;26.67;20.33;;;;;;;;5117204;27;45294;-85
2021/12/20 00:29:01;;;;;;;;;20.33;18.00;;;;;;;;5116311;27;45286;-86
2021/12/20 00:31:26;;;;;;;;;23.33;22.33;;;;;;;;5116779;27;45372;-83
2021/12/20 00:33:51;;;;;;;;;25.00;23.00;;;;;;;;5116656;27;45254;-82
2021/12/20 00:36:21;;;;;;;;;20.67;16.33;;;;;;;;5117212;27;45456;-82
2021/12/20 00:41:30;;;;;;;;;19.75;16.25;;;;;;;;5116432;27;45355;-82
2021/12/20 00:43:56;;;;;;;;;18.33;16.00;;;;;;;;5098146;27;45471;-83
2021/12/20 00:46:21;;;;;;;;;22.33;21.33;;;;;;;;5097971;27;45529;-82
2021/12/20 00:48:46;;;;;;;;;22.33;20.33;;;;;;;;5097592;27;47066;-82
2021/12/20 00:51:11;;;;;;;;;22.33;19.00;;;;;;;;5116548;27;45314;-82
2021/12/20 00:53:37;;;;;;;;;23.00;22.00;;;;;;;;5093995;27;45345;-84
2021/12/20 00:56:02;;;;;;;;;23.67;22.67;;;;;;;;5095806;27;45377;-83
2021/12/20 00:58:28;;;;;;;;;25.25;24.50;;;;;;;;5095514;27;47390;-83
2021/12/20 01:00:55;;;;;;;;;20.50;18.25;;;;;;;;5095816;27;45459;-82
2021/12/20 01:03:20;;;;;;;;;23.00;21.25;;;;;;;;5095998;27;45482;-82
2021/12/20 01:05:46;;;;;;;;;19.75;18.00;;;;;;;;5094149;27;45628;-82
2021/12/20 01:08:11;;;;;;;;;22.25;18.75;;;;;;;;5093679;27;47172;-83
2021/12/20 01:10:39;;;;;;;;;23.25;21.50;;;;;;;;5094121;27;45625;-83
2021/12/20 01:13:04;;;;;;;;;22.75;20.25;;;;;;;;5095541;27;45417;-81
2021/12/20 01:15:35;;;;;;;;;22.75;19.25;;;;;;;;5095235;27;45611;-82
2021/12/20 01:18:01;;;;;;;;;22.75;19.75;;;;;;;;5093993;27;46740;-82
2021/12/20 01:20:26;;;;;;;;;18.00;14.25;;;;;;;;5095532;27;45330;-84
2021/12/20 01:22:52;;;;;;;;;17.25;17.00;;;;;;;;5093478;27;45449;-83
2021/12/20 01:25:18;;;;;;;;;21.75;19.75;;;;;;;;5095327;27;45265;-82
2021/12/20 01:27:43;;;;;;;;;26.25;21.50;;;;;;;;5093743;27;46974;-83
2021/12/20 01:30:10;;;;;;;;;18.00;18.00;;;;;;;;5095319;27;45418;-83
2021/12/20 01:32:35;;;;;;;;;19.00;17.00;;;;;;;;5095102;27;45487;-82
2021/12/20 01:35:00;;;;;;;;;20.33;18.67;;;;;;;;5095005;27;45348;-82
2021/12/20 01:37:26;;;;;;;;;21.67;19.33;;;;;;;;5093254;27;47244;-83
2021/12/20 01:39:52;;;;;;;;;24.33;20.00;;;;;;;;5095287;27;45374;-83
2021/12/20 01:42:18;;;;;;;;;18.00;16.50;;;;;;;;5094907;27;45464;-84
2021/12/20 01:44:44;;;;;;;;;21.75;20.25;;;;;;;;5094043;27;45398;-85
2021/12/20 01:47:09;;;;;;;;;17.75;16.25;;;;;;;;5095907;27;45744;-85
2021/12/20 01:49:42;;;;;;;;;19.50;18.25;;;;;;;;5093908;27;45538;-85
2021/12/20 01:52:14;;;;;;;;;22.75;19.25;;;;;;;;5093291;27;45344;-85
2021/12/20 01:54:39;;;;;;;;;21.50;19.00;;;;;;;;5094162;27;45726;-86
2021/12/20 01:57:05;;;;;;;;;21.50;18.50;;;;;;;;5094890;27;46302;-86
2021/12/20 01:59:30;;;;;;;;;21.00;18.75;;;;;;;;5093584;27;45456;-86
2021/12/20 02:01:55;;;;;;;;;22.67;19.33;;;;;;;;5095171;27;45385;-86
2021/12/20 02:04:21;;;;;;;;;20.67;19.00;;;;;;;;5093561;27;45491;-86
2021/12/20 02:06:47;;;;;;;;;24.00;21.25;;;;;;;;5094742;27;46492;-85
2021/12/20 02:09:15;;;;;;;;;20.25;19.00;;;;;;;;5094334;27;45317;-86
2021/12/20 02:11:41;;;;;;;;;17.50;17.00;;;;;;;;5094742;27;45385;-84
2021/12/20 02:14:08;;;;;;;;;19.25;19.25;;;;;;;;5094926;27;45223;-86
2021/12/20 02:16:34;;;;;;;;;29.75;23.75;;;;;;;;5094573;27;45386;-86
2021/12/20 02:19:06;;;;;;;;;22.00;20.50;;;;;;;;5093298;27;45362;-86
2021/12/20 02:21:31;;;;;;;;;20.00;19.00;;;;;;;;5094502;27;45447;-85
2021/12/20 02:23:57;;;;;;;;;19.67;19.33;;;;;;;;5092729;27;45360;-85
2021/12/20 02:26:23;;;;;;;;;27.00;22.00;;;;;;;;5092798;27;46731;-85
2021/12/20 02:28:51;;;;;;;;;23.75;21.75;;;;;;;;5094420;27;45270;-85
2021/12/20 02:39:13;;;;;;;;;25.75;24.50;;;;;;;;5093827;27;45900;-86
2021/12/20 02:41:38;;;;;;;;;25.75;22.00;;;;;;;;5094305;27;45362;-85
2021/12/20 02:44:06;;;;;;;;;23.67;20.33;;;;;;;;5093971;27;45427;-83
2021/12/20 02:49:05;;;;;;;;;27.25;23.75;;;;;;;;5093806;27;45480;-84
2021/12/20 02:51:30;;;;;;;;;29.00;24.67;;;;;;;;5093911;27;45275;-83
2021/12/20 02:53:57;;;;;;;;;29.67;26.00;;;;;;;;5094771;27;45425;-83
2021/12/20 02:56:22;;;;;;;;;23.25;22.25;;;;;;;;5114345;27;45545;-82
2021/12/20 02:58:47;;;;;;;;;29.00;24.75;;;;;;;;5095864;27;45495;-83
2021/12/20 03:01:13;;;;;;;;;31.50;28.00;;;;;;;;5095875;27;45398;-83
2021/12/20 03:03:39;;;;;;;;;28.33;24.00;;;;;;;;5095768;27;45412;-83
2021/12/20 03:06:09;;;;;;;;;30.50;27.00;;;;;;;;5113982;27;48345;-82
2021/12/20 03:08:34;;;;;;;;;38.25;30.00;;;;;;;;5095150;27;45570;-82
2021/12/20 03:11:00;;;;;;;;;26.75;26.75;;;;;;;;5095862;27;45507;-83
2021/12/20 03:13:25;;;;;;;;;28.00;25.33;;;;;;;;5114182;27;45321;-83
2021/12/20 03:15:50;;;;;;;;;29.33;26.00;;;;;;;;5113420;27;47188;-82
2021/12/20 03:18:16;;;;;;;;;29.00;28.25;;;;;;;;5095261;27;45369;-83
2021/12/20 03:20:41;;;;;;;;;29.33;27.33;;;;;;;;5114017;27;45488;-82
2021/12/20 03:23:06;;;;;;;;;32.00;28.00;;;;;;;;5095187;27;45336;-83
2021/12/20 03:25:32;;;;;;;;;28.00;27.00;;;;;;;;5095227;27;47105;-83
2021/12/20 03:27:57;;;;;;;;;28.67;26.67;;;;;;;;5095244;27;46204;-82
2021/12/20 03:30:22;;;;;;;;;33.33;29.33;;;;;;;;5114190;27;45298;-83
2021/12/20 03:32:47;;;;;;;;;35.33;32.00;;;;;;;;5095217;27;45331;-83
2021/12/20 03:35:13;;;;;;;;;34.33;30.33;;;;;;;;5094910;27;47328;-83
2021/12/20 03:37:38;;;;;;;;;34.50;31.50;;;;;;;;5113480;27;45461;-82
2021/12/20 03:40:04;;;;;;;;;33.33;29.67;;;;;;;;5113713;27;45391;-83
2021/12/20 03:42:31;;;;;;;;;29.75;28.25;;;;;;;;5113729;27;45369;-83
2021/12/20 03:44:56;;;;;;;;;35.75;30.00;;;;;;;;5094937;27;47458;-82
2021/12/20 03:47:21;;;;;;;;;32.67;30.33;;;;;;;;5094928;27;45435;-82
2021/12/20 03:49:46;;;;;;;;;34.67;31.00;;;;;;;;5095306;27;46037;-82
2021/12/20 03:52:12;;;;;;;;;36.33;34.33;;;;;;;;5113164;27;45447;-82
2021/12/20 03:54:37;;;;;;;;;36.00;32.33;;;;;;;;5094781;27;47464;-81
2021/12/20 03:57:03;;;;;;;;;38.25;36.25;;;;;;;;5113522;27;45438;-83
2021/12/20 03:59:29;;;;;;;;;36.50;33.25;;;;;;;;5113665;27;45259;-83
2021/12/20 04:01:54;;;;;;;;;39.75;36.50;;;;;;;;5113466;27;45430;-83
2021/12/20 04:04:20;;;;;;;;;36.00;31.75;;;;;;;;5114706;27;45452;-83
2021/12/20 04:06:45;;;;;;;;;37.67;35.00;;;;;;;;5098979;27;45623;-86
2021/12/20 04:09:10;;;;;;;;;38.00;34.67;;;;;;;;5098517;27;45710;-86
2021/12/20 04:11:35;;;;;;;;;36.67;32.67;;;;;;;;5098742;27;45320;-87
2021/12/20 04:14:01;;;;;;;;;31.33;28.00;;;;;;;;5098683;27;47996;-86
2021/12/20 04:16:29;;;;;;;;;35.75;30.25;;;;;;;;5117093;27;45277;-86
2021/12/20 04:18:54;;;;;;;;;38.75;34.75;;;;;;;;5098574;27;45324;-87
2021/12/20 04:21:19;;;;;;;;;36.00;33.00;;;;;;;;5099160;27;45550;-86
2021/12/20 04:23:44;;;;;;;;;31.33;28.33;;;;;;;;5098067;27;47445;-86
2021/12/20 04:26:09;;;;;;;;;39.33;33.33;;;;;;;;5098357;27;45429;-86
2021/12/20 04:28:35;;;;;;;;;37.00;32.00;;;;;;;;5117175;27;45398;-86
2021/12/20 04:31:00;;;;;;;;;38.33;34.67;;;;;;;;5098216;27;45545;-86
2021/12/20 04:33:25;;;;;;;;;38.67;32.67;;;;;;;;5116852;27;45429;-86
2021/12/20 04:35:51;;;;;;;;;47.33;38.00;;;;;;;;5097975;27;45570;-85
2021/12/20 04:38:16;;;;;;;;;44.00;34.75;;;;;;;;5116579;27;45353;-86
2021/12/20 04:40:41;;;;;;;;;36.00;33.50;;;;;;;;5098421;27;45267;-86
2021/12/20 04:43:07;;;;;;;;;41.67;37.33;;;;;;;;5098257;27;47052;-86
2021/12/20 04:45:33;;;;;;;;;43.67;35.00;;;;;;;;5116305;27;45567;-86
2021/12/20 04:47:58;;;;;;;;;43.50;36.00;;;;;;;;5116941;27;45410;-85
2021/12/20 04:50:24;;;;;;;;;43.00;37.00;;;;;;;;5098385;27;45423;-84
2021/12/20 04:52:49;;;;;;;;;43.00;36.50;;;;;;;;5116040;27;46232;-82
2021/12/20 04:55:14;;;;;;;;;41.50;37.75;;;;;;;;5116302;27;45436;-82
2021/12/20 04:57:41;;;;;;;;;45.25;37.25;;;;;;;;5097684;27;45466;-83
2021/12/20 05:00:09;;;;;;;;;40.75;36.75;;;;;;;;5097368;27;45788;-82
2021/12/20 05:02:34;;;;;;;;;28.25;27.25;;;;;;;;5097509;27;46174;-82
2021/12/20 05:04:59;;;;;;;;;39.67;33.67;;;;;;;;5097371;27;45384;-82
2021/12/20 05:07:26;;;;;;;;;36.67;29.33;;;;;;;;5097284;27;45267;-81
2021/12/20 05:09:57;;;;;;;;;35.00;32.25;;;;;;;;5097523;27;45541;-82
2021/12/20 05:12:22;;;;;;;;;27.50;24.75;;;;;;;;5115900;27;46358;-83
2021/12/20 05:14:47;;;;;;;;;30.33;27.67;;;;;;;;5115898;27;45298;-82
2021/12/20 05:17:13;;;;;;;;;25.00;24.00;;;;;;;;5097271;27;45502;-81
2021/12/20 05:19:39;;;;;;;;;28.50;26.50;;;;;;;;5115632;27;45485;-83
2021/12/20 05:22:05;;;;;;;;;31.50;25.75;;;;;;;;5115461;27;45732;-82
2021/12/20 05:24:30;;;;;;;;;26.50;24.00;;;;;;;;5097095;27;45575;-82
2021/12/20 05:26:55;;;;;;;;;28.33;23.67;;;;;;;;5097444;27;45406;-83
2021/12/20 05:29:22;;;;;;;;;34.33;28.33;;;;;;;;5096980;27;45420;-81
2021/12/20 05:31:47;;;;;;;;;31.25;27.75;;;;;;;;5115509;27;45400;-82
2021/12/20 05:34:12;;;;;;;;;32.00;30.00;;;;;;;;5096997;27;45555;-81
2021/12/20 05:36:38;;;;;;;;;34.33;28.67;;;;;;;;5096869;27;45395;-82
2021/12/20 05:39:03;;;;;;;;;23.00;22.33;;;;;;;;5115460;27;45379;-82
2021/12/20 05:41:28;;;;;;;;;28.50;26.75;;;;;;;;5115272;27;46524;-83
2021/12/20 05:43:54;;;;;;;;;39.25;34.00;;;;;;;;5096964;27;45806;-82
2021/12/20 05:46:19;;;;;;;;;33.67;30.00;;;;;;;;5115324;27;45555;-83
2021/12/20 05:48:44;;;;;;;;;39.33;32.67;;;;;;;;5116026;27;45591;-83
2021/12/20 05:51:09;;;;;;;;;33.00;30.33;;;;;;;;5115439;27;46338;-82
2021/12/20 05:53:34;;;;;;;;;38.33;30.67;;;;;;;;5114478;27;45610;-83
2021/12/20 05:56:00;;;;;;;;;34.67;32.33;;;;;;;;5096892;27;45521;-82
2021/12/20 05:58:25;;;;;;;;;27.00;25.67;;;;;;;;5096561;27;45535;-83
2021/12/20 06:00:50;;;;;;;;;30.00;27.67;;;;;;;;5115073;27;46690;-82
2021/12/20 06:03:15;;;;;;;;;34.33;32.00;;;;;;;;5096565;27;45333;-83
2021/12/20 06:05:42;;;;;;;;;33.33;32.33;;;;;;;;5096417;27;45501;-83
2021/12/20 06:08:08;;;;;;;;;32.50;31.00;;;;;;;;5096254;27;45341;-83
2021/12/20 06:10:37;;;;;;;;;30.00;26.75;;;;;;;;5096669;27;46928;-82
2021/12/20 06:13:05;;;;;;;;;33.25;29.25;;;;;;;;5096332;27;45727;-83
2021/12/20 06:15:30;;;;;;;;;30.75;28.25;;;;;;;;5096590;27;45514;-83
2021/12/20 06:17:56;;;;;;;;;36.67;31.67;;;;;;;;5115117;27;45289;-83
2021/12/20 06:20:21;;;;;;;;;37.25;32.25;;;;;;;;5114853;27;45472;-82
2021/12/20 06:22:46;;;;;;;;;33.75;31.25;;;;;;;;5114430;27;45361;-82
2021/12/20 06:25:12;;;;;;;;;37.67;31.00;;;;;;;;5096291;27;45312;-83
2021/12/20 06:27:38;;;;;;;;;31.50;28.00;;;;;;;;5095071;27;45365;-85
2021/12/20 06:30:04;;;;;;;;;31.50;27.25;;;;;;;;5115177;27;45330;-85
2021/12/20 06:32:29;;;;;;;;;41.75;36.00;;;;;;;;5096110;27;45441;-85
2021/12/20 06:34:55;;;;;;;;;28.67;27.67;;;;;;;;5096467;27;45408;-85
2021/12/20 06:37:21;;;;;;;;;31.75;23.75;;;;;;;;5114336;27;45425;-86
2021/12/20 06:39:46;;;;;;;;;30.50;26.50;;;;;;;;5095974;27;48444;-85
2021/12/20 06:42:11;;;;;;;;;31.00;25.67;;;;;;;;5114969;27;45503;-85
2021/12/20 06:44:37;;;;;;;;;35.00;27.75;;;;;;;;5114570;27;45427;-86
2021/12/20 06:47:02;;;;;;;;;32.25;28.00;;;;;;;;5114557;27;45366;-86
2021/12/20 06:49:27;;;;;;;;;32.75;30.00;;;;;;;;5114522;27;47770;-86
2021/12/20 06:51:55;;;;;;;;;35.00;28.33;;;;;;;;5095290;27;45501;-85
2021/12/20 06:54:20;;;;;;;;;34.25;29.25;;;;;;;;5114538;27;45312;-86
2021/12/20 06:56:46;;;;;;;;;30.67;27.33;;;;;;;;5095803;27;45268;-85
2021/12/20 06:59:11;;;;;;;;;33.67;28.33;;;;;;;;5114399;27;46280;-86
2021/12/20 07:01:36;;;;;;;;;29.25;27.50;;;;;;;;5114332;27;45254;-85
2021/12/20 07:04:02;;;;;;;;;29.33;24.67;;;;;;;;5114299;27;45297;-82
2021/12/20 07:06:30;;;;;;;;;25.75;23.75;;;;;;;;5113977;27;45409;-82
2021/12/20 07:08:55;;;;;;;;;31.75;26.50;;;;;;;;5090214;27;47339;-82
2021/12/20 07:11:21;;;;;;;;;29.75;25.00;;;;;;;;5113755;27;45436;-82
2021/12/20 07:13:47;;;;;;;;;28.50;23.75;;;;;;;;5114139;27;45472;-82
2021/12/20 07:16:12;;;;;;;;;32.33;24.00;;;;;;;;5095558;27;45463;-82
2021/12/20 07:18:38;;;;;;;;;34.00;25.75;;;;;;;;5095320;27;48173;-85
2021/12/20 07:21:03;;;;;;;;;31.25;28.50;;;;;;;;5113564;27;45391;-82
2021/12/20 07:23:28;;;;;;;;;27.67;25.67;;;;;;;;5095185;27;45567;-82
2021/12/20 07:25:53;;;;;;;;;33.00;27.33;;;;;;;;5095205;27;45627;-83
2021/12/20 07:28:19;;;;;;;;;27.33;25.67;;;;;;;;5095102;27;48472;-82
2021/12/20 07:30:45;;;;;;;;;29.75;26.00;;;;;;;;5114079;27;45381;-82
2021/12/20 07:33:10;;;;;;;;;26.50;22.25;;;;;;;;5114030;27;45433;-83
2021/12/20 07:35:35;;;;;;;;;27.67;25.00;;;;;;;;5095285;27;45514;-82
2021/12/20 07:38:03;;;;;;;;;27.00;24.00;;;;;;;;5113380;27;45332;-82
2021/12/20 07:40:28;;;;;;;;;22.75;21.25;;;;;;;;5098360;27;45757;-82
2021/12/20 07:42:53;;;;;;;;;26.50;20.75;;;;;;;;5099143;27;45387;-82
2021/12/20 07:45:18;;;;;;;;;21.33;20.33;;;;;;;;5098894;27;45274;-83
2021/12/20 07:47:44;;;;;;;;;23.67;23.00;;;;;;;;5098628;27;46006;-83
2021/12/20 07:50:09;;;;;;;;;23.33;20.33;;;;;;;;5098896;27;45748;-85
2021/12/20 07:52:34;;;;;;;;;23.33;21.67;;;;;;;;5116585;27;45353;-84
2021/12/20 07:55:00;;;;;;;;;24.00;21.67;;;;;;;;5098705;27;45404;-82
2021/12/20 07:57:25;;;;;;;;;26.50;21.25;;;;;;;;5098390;27;48268;-83
2021/12/20 07:59:51;;;;;;;;;20.50;19.00;;;;;;;;5098629;27;45495;-83
2021/12/20 08:02:16;;;;;;;;;27.00;24.33;;;;;;;;5098666;27;45440;-82
2021/12/20 08:04:47;;;;;;;;;22.33;20.00;;;;;;;;5098624;27;45345;-86
2021/12/20 08:07:12;;;;;;;;;27.00;24.25;;;;;;;;5098281;27;47433;-85
2021/12/20 08:09:37;;;;;;;;;23.33;21.00;;;;;;;;5117397;27;45361;-85
2021/12/20 08:12:03;;;;;;;;;26.67;23.67;;;;;;;;5117458;27;45329;-85
2021/12/20 08:14:28;;;;;;;;;29.00;21.00;;;;;;;;5098726;27;45445;-85
2021/12/20 08:16:53;;;;;;;;;20.00;18.33;;;;;;;;5098874;27;46284;-85
2021/12/20 08:19:18;;;;;;;;;25.00;22.67;;;;;;;;5098732;27;45487;-85
2021/12/20 08:21:44;;;;;;;;;24.00;19.33;;;;;;;;5098336;27;45444;-85
2021/12/20 08:24:09;;;;;;;;;25.33;22.67;;;;;;;;5117056;27;45462;-82
2021/12/20 08:26:34;;;;;;;;;24.33;22.00;;;;;;;;5116718;27;45465;-82
2021/12/20 08:28:59;;;;;;;;;22.00;20.67;;;;;;;;5098032;27;46349;-83
2021/12/20 08:31:24;;;;;;;;;26.00;22.00;;;;;;;;5098378;27;45302;-82
2021/12/20 08:33:50;;;;;;;;;27.00;23.33;;;;;;;;5116779;27;45279;-82
2021/12/20 08:36:15;;;;;;;;;22.50;18.75;;;;;;;;5116802;27;46335;-82
2021/12/20 08:38:41;;;;;;;;;25.67;21.00;;;;;;;;5115945;27;45515;-83
2021/12/20 08:41:06;;;;;;;;;22.00;21.25;;;;;;;;5117207;27;45580;-83
2021/12/20 08:43:32;;;;;;;;;25.50;22.50;;;;;;;;5116797;27;45370;-83
2021/12/20 08:45:59;;;;;;;;;31.00;28.67;;;;;;;;5097737;27;47192;-82
2021/12/20 08:48:25;;;;;;;;;33.25;29.50;;;;;;;;5116287;27;45793;-82
2021/12/20 08:50:50;;;;;;;;;33.00;26.25;;;;;;;;5115710;27;45386;-83
2021/12/20 08:53:16;;;;;;;;;28.67;23.67;;;;;;;;5097163;27;45598;-83
2021/12/20 08:55:41;;;;;;;;;26.67;25.00;;;;;;;;5116757;27;45786;-83
2021/12/20 08:58:07;;;;;;;;;29.25;25.00;;;;;;;;5116202;27;45294;-83
2021/12/20 09:00:34;;;;;;;;;27.67;23.00;;;;;;;;5097770;27;45316;-82
2021/12/20 09:03:00;;;;;;;;;27.50;24.50;;;;;;;;5116367;27;45448;-82
2021/12/20 09:05:26;;;;;;;;;26.50;23.25;;;;;;;;5115878;27;45522;-83
2021/12/20 09:07:51;;;;;;;;;31.00;27.25;;;;;;;;5097418;27;45424;-83
2021/12/20 09:10:17;;;;;;;;;28.00;26.33;;;;;;;;5116208;27;45466;-83
2021/12/20 09:12:43;;;;;;;;;28.75;27.00;;;;;;;;5116177;27;45348;-83
2021/12/20 09:15:09;;;;;;;;;32.75;27.75;;;;;;;;5097424;27;47607;-83
2021/12/20 09:17:34;;;;;;;;;33.25;29.25;;;;;;;;5097340;27;46136;-82
2021/12/20 09:19:59;;;;;;;;;23.00;22.00;;;;;;;;5097344;27;45387;-82
2021/12/20 09:22:30;;;;;;;;;27.33;25.67;;;;;;;;5115375;27;45221;-83
2021/12/20 09:24:55;;;;;;;;;24.00;22.00;;;;;;;;5115846;27;46355;-82
2021/12/20 09:27:21;;;;;;;;;33.33;28.00;;;;;;;;5097312;27;45306;-83
2021/12/20 09:29:46;;;;;;;;;29.50;25.00;;;;;;;;5097376;27;45396;-83
2021/12/20 09:32:11;;;;;;;;;30.33;25.67;;;;;;;;5097428;27;45379;-83
2021/12/20 09:34:36;;;;;;;;;30.00;22.67;;;;;;;;5115931;27;45483;-83
2021/12/20 09:37:05;;;;;;;;;27.33;26.00;;;;;;;;5096668;27;45428;-83
2021/12/20 09:39:31;;;;;;;;;29.25;25.25;;;;;;;;5096824;27;45532;-82
2021/12/20 09:42:00;;;;;;;;;30.25;22.50;;;;;;;;5115657;27;45326;-83
2021/12/20 09:44:26;;;;;;;;;23.75;23.00;;;;;;;;5096769;27;47405;-83
2021/12/20 09:46:54;;;;;;;;;28.25;24.50;;;;;;;;5115464;27;45792;-83
2021/12/20 09:49:20;;;;;;;;;28.50;24.50;;;;;;;;5097097;27;45375;-83
2021/12/20 09:51:45;;;;;;;;;28.50;25.50;;;;;;;;5096362;27;45472;-82
2021/12/20 09:54:10;;;;;;;;;29.33;21.67;;;;;;;;5114952;27;48440;-82
2021/12/20 09:56:38;;;;;;;;;28.00;24.67;;;;;;;;5114956;27;45312;-84
2021/12/20 09:59:04;;;;;;;;;28.50;26.00;;;;;;;;5096725;27;45575;-82
2021/12/20 10:01:29;;;;;;;;;27.00;26.00;;;;;;;;5096543;27;45453;-83
2021/12/20 10:03:55;;;;;;;;;29.25;24.00;;;;;;;;5096473;27;48347;-83
2021/12/20 10:06:21;;;;;;;;;22.25;20.25;;;;;;;;5096341;27;46058;-83
2021/12/20 10:08:55;;;;;;;;;25.75;23.75;;;;;;;;5115430;27;45640;-83
2021/12/20 10:11:31;;;;;;;;;30.00;27.25;;;;;;;;5096542;27;45627;-83
2021/12/20 10:14:06;;;;;;;;;30.25;26.50;;;;;;;;5096234;27;47327;-83
2021/12/20 10:16:31;;;;;;;;;19.75;16.75;;;;;;;;5114755;27;45395;-83
2021/12/20 10:18:56;;;;;;;;;21.50;19.50;;;;;;;;5096838;27;44686;-86
2021/12/20 10:21:32;;;;;;;;;27.33;20.00;;;;;;;;5115263;27;45512;-86
2021/12/20 10:23:57;;;;;;;;;19.25;17.25;;;;;;;;5096604;27;47633;-86
2021/12/20 10:26:23;;;;;;;;;19.67;18.33;;;;;;;;5096722;27;45412;-85
2021/12/20 10:28:52;;;;;;;;;14.67;14.00;;;;;;;;5115411;27;45369;-86
2021/12/20 10:31:27;;;;;;;;;20.00;18.50;;;;;;;;5096713;27;45684;-85
2021/12/20 10:33:57;;;;;;;;;18.50;16.25;;;;;;;;5114792;27;45558;-85
2021/12/20 10:36:22;;;;;;;;;24.50;18.25;;;;;;;;5096219;27;45693;-82
2021/12/20 10:38:56;;;;;;;;;23.00;18.67;;;;;;;;5114401;27;45460;-82
2021/12/20 10:41:39;;;;;;;;;19.00;18.00;;;;;;;;5111469;27;45378;-82
2021/12/20 10:44:15;;;;;;;;;18.00;14.50;;;;;;;;5114610;27;45683;-83
2021/12/20 10:46:45;;;;;;;;;14.75;13.25;;;;;;;;5095956;27;46243;-83
2021/12/20 10:49:11;;;;;;;;;19.00;17.75;;;;;;;;5114746;27;45486;-81
2021/12/20 10:51:41;;;;;;;;;20.00;15.75;;;;;;;;5114018;27;45331;-85
2021/12/20 10:54:10;;;;;;;;;20.00;17.50;;;;;;;;5095734;27;47268;-82
2021/12/20 10:56:37;;;;;;;;;16.75;15.75;;;;;;;;5114485;27;45572;-83
2021/12/20 10:59:06;;;;;;;;;19.50;17.00;;;;;;;;5096027;27;45331;-83
2021/12/20 11:04:25;;;;;;;;;20.25;17.50;;;;;;;;5114180;27;45552;-82
2021/12/20 11:09:04;;;;;;;;;17.00;16.50;;;;;;;;5113912;27;45793;-83
2021/12/20 11:09:44;;;;;;;;;18.00;18.00;;;;;;;;5114158;27;45450;-82
2021/12/20 11:12:10;;;;;;;;;20.75;17.00;;;;;;;;5095691;27;45359;-82
2021/12/20 11:14:37;;;;;;;;;19.00;16.50;;;;;;;;5113261;27;45467;-82
2021/12/20 11:17:03;;;;;;;;;18.00;17.25;;;;;;;;5114036;27;45920;-83
2021/12/20 11:19:29;;;;;;;;;22.00;20.25;;;;;;;;5114232;27;45352;-83
2021/12/20 11:21:55;;;;;;;;;21.00;19.00;;;;;;;;5113744;27;45436;-82
2021/12/20 11:24:40;;;;;;;;;23.00;17.50;;;;;;;;5114019;27;46163;-83
2021/12/20 11:27:07;;;;;;;;;19.00;18.00;;;;;;;;5113142;27;45307;-82
2021/12/20 11:29:34;;;;;;;;;21.75;17.00;;;;;;;;5095621;27;45336;-84
2021/12/20 11:32:00;;;;;;;;;23.75;22.50;;;;;;;;5095522;27;45324;-83
2021/12/20 11:34:26;;;;;;;;;22.00;19.50;;;;;;;;5113807;27;45574;-83
2021/12/20 11:36:52;;;;;;;;;26.25;21.25;;;;;;;;5113440;27;45430;-83
2021/12/20 11:39:17;;;;;;;;;23.75;20.50;;;;;;;;5113680;27;45543;-83
2021/12/20 11:41:43;;;;;;;;;25.33;21.33;;;;;;;;5113884;27;45483;-83
2021/12/20 11:44:14;;;;;;;;;21.67;19.00;;;;;;;;5113703;27;45527;-82
2021/12/20 11:46:42;;;;;;;;;22.25;19.00;;;;;;;;5113623;27;45450;-83
2021/12/20 11:49:08;;;;;;;;;22.25;21.00;;;;;;;;5114403;27;45564;-83
2021/12/20 11:51:52;;;;;;;;;20.75;16.00;;;;;;;;5112946;27;45639;-82
2021/12/20 11:54:35;;;;;;;;;20.75;20.25;;;;;;;;5113602;27;45388;-83
2021/12/20 11:57:00;;;;;;;;;21.50;19.25;;;;;;;;5113595;27;45275;-83
2021/12/20 11:59:44;;;;;;;;;23.00;22.25;;;;;;;;5113736;27;45355;-83
2021/12/20 12:02:23;;;;;;;;;26.75;23.50;;;;;;;;5095020;27;45345;-83
2021/12/20 12:04:56;;;;;;;;;23.25;23.00;;;;;;;;5113729;27;46483;-83
2021/12/20 12:07:23;;;;;;;;;23.50;22.25;;;;;;;;5113308;27;45773;-85
2021/12/20 12:09:55;;;;;;;;;21.00;19.75;;;;;;;;5113642;27;45426;-84
2021/12/20 12:12:25;;;;;;;;;25.25;21.25;;;;;;;;5113529;27;45505;-83
2021/12/20 12:15:05;;;;;;;;;21.25;18.75;;;;;;;;5094789;27;48415;-83
2021/12/20 12:17:49;;;;;;;;;27.00;20.25;;;;;;;;5113556;27;45753;-83
2021/12/20 12:20:34;;;;;;;;;22.00;19.25;;;;;;;;5113801;27;45334;-86
2021/12/20 12:23:10;;;;;;;;;18.75;18.00;;;;;;;;5094845;27;45542;-85
2021/12/20 12:25:37;;;;;;;;;24.00;20.50;;;;;;;;5095008;27;47172;-85
2021/12/20 12:28:02;;;;;;;;;20.75;17.75;;;;;;;;5098497;27;45702;-86
2021/12/20 12:30:30;;;;;;;;;21.50;19.00;;;;;;;;5116980;27;45614;-85
2021/12/20 12:32:56;;;;;;;;;23.25;22.25;;;;;;;;5117231;27;45526;-85
2021/12/20 12:35:39;;;;;;;;;23.25;19.75;;;;;;;;5098313;27;47022;-84
2021/12/20 12:38:20;;;;;;;;;23.00;19.00;;;;;;;;5116782;27;45659;-86
2021/12/20 12:40:49;;;;;;;;;25.00;23.50;;;;;;;;5117185;27;45338;-86
2021/12/20 12:43:15;;;;;;;;;22.50;18.75;;;;;;;;5099257;27;45576;-86
2021/12/20 12:45:51;;;;;;;;;24.00;22.50;;;;;;;;5097916;27;48416;-85
2021/12/20 12:48:35;;;;;;;;;24.50;22.00;;;;;;;;5098074;27;45581;-85
2021/12/20 12:51:23;;;;;;;;;23.75;18.50;;;;;;;;5098107;27;45473;-86
2021/12/20 12:53:50;;;;;;;;;22.75;21.50;;;;;;;;5096317;27;45660;-85
2021/12/20 12:56:24;;;;;;;;;22.75;21.75;;;;;;;;5098019;27;48275;-85
2021/12/20 12:59:08;;;;;;;;;35.00;24.50;;;;;;;;5098184;27;45634;-86
2021/12/20 13:01:34;;;;;;;;;19.25;17.75;;;;;;;;5116899;27;45510;-86
2021/12/20 13:03:59;;;;;;;;;20.75;19.00;;;;;;;;5097549;27;45726;-85
2021/12/20 13:06:25;;;;;;;;;26.67;22.67;;;;;;;;5097583;27;48450;-85
2021/12/20 13:08:53;;;;;;;;;17.75;17.50;;;;;;;;5116226;27;45519;-86
2021/12/20 13:11:22;;;;;;;;;19.00;18.00;;;;;;;;5116569;27;45431;-86
2021/12/20 13:13:55;;;;;;;;;19.75;18.50;;;;;;;;5116578;27;45435;-85
2021/12/20 13:16:25;;;;;;;;;20.75;18.25;;;;;;;;5097805;27;48212;-85
2021/12/20 13:18:52;;;;;;;;;21.50;18.00;;;;;;;;5116322;27;45514;-85
2021/12/20 13:21:24;;;;;;;;;64.00;52.50;;;;;;;;5116103;27;45521;-86
2021/12/20 13:23:49;;;;;;;;;25.25;20.50;;;;;;;;5097842;27;45422;-85
2021/12/20 13:26:21;;;;;;;;;24.00;18.00;;;;;;;;5097336;27;48295;-86
2021/12/20 13:28:56;;;;;;;;;19.50;18.00;;;;;;;;5097520;27;45341;-85
2021/12/20 13:31:23;;;;;;;;;15.75;15.75;;;;;;;;5097557;27;45393;-86
2021/12/20 13:33:55;;;;;;;;;18.25;17.00;;;;;;;;5097544;27;45590;-85
2021/12/20 13:36:23;;;;;;;;;24.75;21.25;;;;;;;;5115527;27;45485;-85
2021/12/20 13:38:57;;;;;;;;;21.50;19.00;;;;;;;;5097073;27;45886;-84
2021/12/20 13:41:24;;;;;;;;;22.50;20.75;;;;;;;;5115926;27;45296;-86
2021/12/20 13:44:01;;;;;;;;;22.50;17.50;;;;;;;;5097337;27;45595;-86
2021/12/20 13:46:29;;;;;;;;;25.50;20.00;;;;;;;;5115694;27;45456;-85
2021/12/20 13:48:56;;;;;;;;;23.75;20.25;;;;;;;;5097263;27;45331;-86
2021/12/20 13:51:28;;;;;;;;;35.00;30.00;;;;;;;;5096818;27;45278;-85
2021/12/20 13:53:53;;;;;;;;;27.00;25.75;;;;;;;;5115586;27;45429;-85
2021/12/20 13:56:18;;;;;;;;;28.00;23.67;;;;;;;;5115549;27;45346;-85
2021/12/20 13:58:46;;;;;;;;;23.33;21.33;;;;;;;;5115537;27;45334;-85
2021/12/20 14:01:11;;;;;;;;;22.75;22.50;;;;;;;;5096992;27;45704;-86
2021/12/20 14:03:40;;;;;;;;;20.00;17.33;;;;;;;;5096906;27;45683;-85
2021/12/20 14:06:08;;;;;;;;;30.00;24.00;;;;;;;;5115313;27;45466;-86
2021/12/20 14:08:34;;;;;;;;;23.25;20.25;;;;;;;;5096162;27;45791;-84
2021/12/20 14:10:59;;;;;;;;;18.75;17.50;;;;;;;;5096534;27;45574;-86
2021/12/20 14:13:25;;;;;;;;;19.67;18.33;;;;;;;;5096918;27;45311;-86
2021/12/20 14:16:03;;;;;;;;;18.00;16.75;;;;;;;;5096403;27;47127;-86
2021/12/20 14:18:35;;;;;;;;;21.75;17.75;;;;;;;;5096530;27;45493;-85
2021/12/20 14:21:05;;;;;;;;;24.00;19.75;;;;;;;;5096937;27;45398;-86
2021/12/20 14:23:42;;;;;;;;;25.00;21.00;;;;;;;;5096445;27;45364;-85
2021/12/20 14:26:07;;;;;;;;;18.25;17.75;;;;;;;;5114971;27;46249;-86
2021/12/20 14:28:34;;;;;;;;;22.33;18.00;;;;;;;;5096539;27;45903;-85
2021/12/20 14:31:08;;;;;;;;;28.25;23.25;;;;;;;;5096959;27;45708;-86
2021/12/20 14:33:38;;;;;;;;;30.25;29.50;;;;;;;;5096394;27;45576;-85